WetterOnline ( https://www.wetteronline.de )

Wetter aktuell Ahaus

Aktuelles Wetter: Ahaus (46m)

6-stündlich | Neueste Meldungen
Ortszeit Temperatur Wetter
Sa, 15.06. 14:00 16.9° C wolkig
Sa, 15.06. 8:00 13.8° C bewölkt
Sa, 15.06. 2:00 15.3° C bedeckt
Fr, 14.06. 20:00 17.7° C leichter Regen
Fr, 14.06. 14:00 17.2° C bedeckt
Fr, 14.06. 8:00 14.0° C leichter Regen
Fr, 14.06. 2:00 15.0° C wolkig
Do, 13.06. 20:00 17.9° C bewölkt
Ortszeit Temperatur Wetter
Sa, 15.06. 16:30 18.2° C wolkig
Sa, 15.06. 16:20 18.2° C wolkig
Sa, 15.06. 16:10 18.5° C wolkig
Sa, 15.06. 16:00 18.0° C wolkig
Sa, 15.06. 15:50 18.0° C wolkig
Sa, 15.06. 15:40 17.7° C wolkig
Sa, 15.06. 15:30 17.0° C wolkig
Sa, 15.06. 15:00 17.0° C bewölkt
Sa, 15.06. 14:30 17.6° C wolkig
Sa, 15.06. 14:00 16.9° C wolkig
Sa, 15.06. 13:30 16.8° C wolkig
Ortszeit Relative Feuchte Sichtweite
Sa, 15.06. 14:00 58% 30 km
Sa, 15.06. 8:00 94% 40 km
Sa, 15.06. 2:00 88% 50 km
Fr, 14.06. 20:00 75% 28 km
Fr, 14.06. 14:00 65% >70 km
Fr, 14.06. 8:00 77% 45 km
Fr, 14.06. 2:00 61% 55 km
Do, 13.06. 20:00 48% >70 km
Ortszeit Relative Feuchte Sichtweite
Sa, 15.06. 16:30 46% 45 km
Sa, 15.06. 16:20 46% -
Sa, 15.06. 16:10 50% -
Sa, 15.06. 16:00 53% >70 km
Sa, 15.06. 15:50 53% -
Sa, 15.06. 15:40 54% -
Sa, 15.06. 15:30 55% 50 km
Sa, 15.06. 15:00 56% 40 km
Sa, 15.06. 14:30 58% 40 km
Sa, 15.06. 14:00 58% 30 km
Sa, 15.06. 13:30 59% 45 km
Ortszeit Niederschlagsmenge Niederschlagsart
Sa, 15.06. 14:00 0.7 l/m2 in 6 Std. Regen
Sa, 15.06. 8:00 4 l/m2 in 12 Std. Regen
Sa, 15.06. 2:00 2 l/m2 in 6 Std. Regen
Fr, 14.06. 20:00 0.1 l/m2 in 12 Std. Regen
Fr, 14.06. 14:00 0.1 l/m2 in 6 Std. Regen
Fr, 14.06. 8:00 0.1 l/m2 in 12 Std. Regen
Fr, 14.06. 2:00 0.0 l/m2 in 6 Std. -
Do, 13.06. 20:00 0.0 l/m2 in 12 Std. -
Ortszeit Niederschlagsmenge Niederschlagsart
Sa, 15.06. 16:30 0.0 l/m2 in 30 Min -
Sa, 15.06. 16:20 keine Meldung -
Sa, 15.06. 16:10 keine Meldung -
Sa, 15.06. 16:00 0.0 l/m2 in 1 Std. -
Sa, 15.06. 15:50 keine Meldung -
Sa, 15.06. 15:40 keine Meldung -
Sa, 15.06. 15:30 0.0 l/m2 in 30 Min -
Sa, 15.06. 15:00 0.0 l/m2 in 1 Std. -
Sa, 15.06. 14:30 0.0 l/m2 in 30 Min -
Sa, 15.06. 14:00 0.0 l/m2 in 1 Std. Regen
Sa, 15.06. 13:30 0.0 l/m2 in 30 Min -
Ortszeit Stärke Spitze Richtung
km/h Bft. km/h Grad Sektor
Sa, 15.06. 14:00 25 4 54 230° SW
Sa, 15.06. 8:00 13 3 35 220° SW
Sa, 15.06. 2:00 11 2 28 140° SO
Fr, 14.06. 20:00 14 3 36 170° S
Fr, 14.06. 14:00 17 3 35 170° S
Fr, 14.06. 8:00 13 3 43 190° S
Fr, 14.06. 2:00 13 3 20 160° S
Do, 13.06. 20:00 7 2 32 190° S
Ortszeit Stärke Spitze Richtung
km/h Bft. km/h Grad Sektor
Sa, 15.06. 16:30 26 4 44 220° SW
Sa, 15.06. 16:20 26 4 - 220° SW
Sa, 15.06. 16:10 28 4 - 210° SW
Sa, 15.06. 16:00 26 4 48 210° SW
Sa, 15.06. 15:50 26 4 - 210° SW
Sa, 15.06. 15:40 28 4 - 210° SW
Sa, 15.06. 15:30 28 4 48 210° SW
Sa, 15.06. 15:00 29 5 47 200° S
Sa, 15.06. 14:30 25 4 47 220° SW
Sa, 15.06. 14:00 25 4 50 230° SW
Sa, 15.06. 13:30 24 4 44 220° SW
Ortszeit Untergrenze Bedeckung Gattung
total tief tief mittel hoch
Sa, 15.06. 14:00 1110 m 6/8 6/8 - - -
Sa, 15.06. 8:00 450 m 7/8 7/8 - - -
Sa, 15.06. 2:00 4200 m 8/8 8/8 - - -
Fr, 14.06. 20:00 840 m 8/8 8/8 - - -
Fr, 14.06. 14:00 930 m 8/8 8/8 - - -
Fr, 14.06. 8:00 2100 m 8/8 8/8 - - -
Fr, 14.06. 2:00 2400 m 8/8 2/8 - - -
Do, 13.06. 20:00 2100 m 7/8 7/8 - - -
Ortszeit Bedeckungsgrad in Achtel und Wolkenuntergrenze
Sa, 15.06. 16:30 4(2100m) 5(6300m) 5(7200m)
Sa, 15.06. 16:20 4(2100m) 5(6300m) 5(7200m)
Sa, 15.06. 16:10 5
Sa, 15.06. 16:00 2(1410m) 6(2100m)
Sa, 15.06. 15:50 2(1410m) 6(2100m)
Sa, 15.06. 15:40 6
Sa, 15.06. 15:30 2(1350m) 6(2100m)
Sa, 15.06. 15:00 3(1290m) 3(1500m) 7(2100m)
Sa, 15.06. 14:30 2(1260m) 6(1800m)
Sa, 15.06. 14:00 1(1110m) 5(1500m) 6(1800m)
Sa, 15.06. 13:30 4(1110m) 6(1800m)
Ortszeit Luftdruck NN (hPa) Tendenz (hPa in 3 Std.)
Sa, 15.06. 14:00 1004 + 1,3
Sa, 15.06. 8:00 1001 + 0,7
Sa, 15.06. 2:00 1001 - 3,2
Fr, 14.06. 20:00 1006 - 0,9
Fr, 14.06. 14:00 1007 - 0,6
Fr, 14.06. 8:00 1009 0,0
Fr, 14.06. 2:00 1011 - 1,8
Do, 13.06. 20:00 1013 - 1,7
Ortszeit Luftdruck NN (hPa) Tendenz (hPa in 3 Std.)
Sa, 15.06. 16:30 1005 + 0,8
Sa, 15.06. 16:20 1005 keine Meldung
Sa, 15.06. 16:10 1005 keine Meldung
Sa, 15.06. 16:00 1005 + 0,9
Sa, 15.06. 15:50 1005 keine Meldung
Sa, 15.06. 15:40 1005 keine Meldung
Sa, 15.06. 15:30 1005 + 1,0
Sa, 15.06. 15:00 1005 + 1,2
Sa, 15.06. 14:30 1005 + 1,3
Sa, 15.06. 14:00 1004 + 1,3
Sa, 15.06. 13:30 1004 + 1,6
Ortszeit Schneehöhe (cm)
Sa, 15.06. 14:00 0
Sa, 15.06. 8:00 0
Sa, 15.06. 2:00 0
Fr, 14.06. 20:00 0
Fr, 14.06. 14:00 0
Fr, 14.06. 8:00 0
Fr, 14.06. 2:00 0
Do, 13.06. 20:00 0
Ortszeit Schneehöhe (cm)
Sa, 15.06. 16:30 0
Sa, 15.06. 16:20 0
Sa, 15.06. 16:10 -
Sa, 15.06. 16:00 0
Sa, 15.06. 15:50 0
Sa, 15.06. 15:40 -
Sa, 15.06. 15:30 0
Sa, 15.06. 15:00 0
Sa, 15.06. 14:30 0
Sa, 15.06. 14:00 0
Sa, 15.06. 13:30 0
Link zu dieser Seite / Seite empfehlen

Das Wetter in ...